sensor_id;sensor_type;location;lat;lon;timestamp;pressure;altitude;pressure_sealevel;temperature;humidity
45253;BME280;63171;50.520;30.486;2023-06-10T00:02:32;99784.09;;;23.97;55.29
45253;BME280;63171;50.520;30.486;2023-06-10T00:03:23;99781.22;;;23.99;55.41
45253;BME280;63171;50.520;30.486;2023-06-10T00:04:13;99780.75;;;23.95;55.61
45253;BME280;63171;50.520;30.486;2023-06-10T00:05:04;99782.59;;;23.95;55.64
45253;BME280;63171;50.520;30.486;2023-06-10T00:05:54;99779.19;;;23.86;55.64
45253;BME280;63171;50.520;30.486;2023-06-10T00:06:44;99773.38;;;23.82;55.83
45253;BME280;63171;50.520;30.486;2023-06-10T00:07:36;99777.72;;;23.83;56.25
45253;BME280;63171;50.520;30.486;2023-06-10T00:08:27;99779.75;;;23.81;56.34
45253;BME280;63171;50.520;30.486;2023-06-10T00:09:18;99785.72;;;23.83;56.51
45253;BME280;63171;50.520;30.486;2023-06-10T00:10:10;99777.91;;;23.82;56.72
45253;BME280;63171;50.520;30.486;2023-06-10T00:11:00;99779.19;;;23.86;56.76
45253;BME280;63171;50.520;30.486;2023-06-10T00:11:51;99778.53;;;23.84;56.70
45253;BME280;63171;50.520;30.486;2023-06-10T00:12:41;99771.91;;;23.80;56.86
45253;BME280;63171;50.520;30.486;2023-06-10T00:13:33;99769.41;;;23.78;57.13
45253;BME280;63171;50.520;30.486;2023-06-10T00:14:22;99774.09;;;23.76;57.21
45253;BME280;63171;50.520;30.486;2023-06-10T00:15:12;99773.00;;;23.71;57.28
45253;BME280;63171;50.520;30.486;2023-06-10T00:16:04;99770.50;;;23.69;57.56
45253;BME280;63171;50.520;30.486;2023-06-10T00:16:53;99774.19;;;23.68;57.62
45253;BME280;63171;50.520;30.486;2023-06-10T00:17:44;99771.22;;;23.63;57.43
45253;BME280;63171;50.520;30.486;2023-06-10T00:18:34;99770.38;;;23.63;57.75
45253;BME280;63171;50.520;30.486;2023-06-10T00:19:26;99768.38;;;23.65;57.24
45253;BME280;63171;50.520;30.486;2023-06-10T00:20:19;99776.94;;;23.60;57.45
45253;BME280;63171;50.520;30.486;2023-06-10T00:21:13;99771.91;;;23.57;57.10
45253;BME280;63171;50.520;30.486;2023-06-10T00:22:03;99770.63;;;23.53;57.29
45253;BME280;63171;50.520;30.486;2023-06-10T00:22:55;99768.97;;;23.52;57.29
45253;BME280;63171;50.520;30.486;2023-06-10T00:23:46;99779.34;;;23.47;56.85
45253;BME280;63171;50.520;30.486;2023-06-10T00:24:37;99772.53;;;23.44;57.06
45253;BME280;63171;50.520;30.486;2023-06-10T00:25:27;99778.25;;;23.41;56.91
45253;BME280;63171;50.520;30.486;2023-06-10T00:26:17;99774.56;;;23.42;57.14
45253;BME280;63171;50.520;30.486;2023-06-10T00:27:08;99770.88;;;23.43;56.82
45253;BME280;63171;50.520;30.486;2023-06-10T00:27:59;99773.72;;;23.42;57.15
45253;BME280;63171;50.520;30.486;2023-06-10T00:28:52;99774.09;;;23.39;56.88
45253;BME280;63171;50.520;30.486;2023-06-10T00:29:44;99777.41;;;23.41;56.72
45253;BME280;63171;50.520;30.486;2023-06-10T00:30:33;99780.28;;;23.39;56.81
45253;BME280;63171;50.520;30.486;2023-06-10T00:31:25;99772.44;;;23.38;56.45
45253;BME280;63171;50.520;30.486;2023-06-10T00:32:15;99765.06;;;23.40;56.67
45253;BME280;63171;50.520;30.486;2023-06-10T00:33:06;99768.56;;;23.40;56.47
45253;BME280;63171;50.520;30.486;2023-06-10T00:33:58;99765.06;;;23.40;56.28
45253;BME280;63171;50.520;30.486;2023-06-10T00:34:48;99775.56;;;23.41;55.87
45253;BME280;63171;50.520;30.486;2023-06-10T00:35:38;99769.91;;;23.36;55.77
45253;BME280;63171;50.520;30.486;2023-06-10T00:36:29;99776.09;;;23.37;55.73
45253;BME280;63171;50.520;30.486;2023-06-10T00:37:20;99771.75;;;23.36;55.87
45253;BME280;63171;50.520;30.486;2023-06-10T00:38:14;99776.59;;;23.40;55.41
45253;BME280;63171;50.520;30.486;2023-06-10T00:39:06;99772.91;;;23.41;55.24
45253;BME280;63171;50.520;30.486;2023-06-10T00:39:59;99770.88;;;23.43;55.57
45253;BME280;63171;50.520;30.486;2023-06-10T00:40:49;99773.53;;;23.43;55.29
45253;BME280;63171;50.520;30.486;2023-06-10T00:41:41;99771.25;;;23.40;55.37
45253;BME280;63171;50.520;30.486;2023-06-10T00:42:30;99769.41;;;23.41;55.26
45253;BME280;63171;50.520;30.486;2023-06-10T00:43:21;99770.88;;;23.43;55.42
45253;BME280;63171;50.520;30.486;2023-06-10T00:44:11;99768.00;;;23.45;55.11
45253;BME280;63171;50.520;30.486;2023-06-10T00:45:02;99769.03;;;23.44;55.41
45253;BME280;63171;50.520;30.486;2023-06-10T00:45:52;99767.56;;;23.41;54.78
45253;BME280;63171;50.520;30.486;2023-06-10T00:46:44;99773.41;;;23.37;55.01
45253;BME280;63171;50.520;30.486;2023-06-10T00:47:34;99768.94;;;23.37;55.06
45253;BME280;63171;50.520;30.486;2023-06-10T00:48:26;99771.88;;;23.42;54.85
45253;BME280;63171;50.520;30.486;2023-06-10T00:49:16;99773.38;;;23.45;54.96
45253;BME280;63171;50.520;30.486;2023-06-10T00:50:07;99769.22;;;23.42;55.05
45253;BME280;63171;50.520;30.486;2023-06-10T00:50:57;99770.22;;;23.41;54.72
45253;BME280;63171;50.520;30.486;2023-06-10T00:51:49;99769.44;;;23.33;54.95
45253;BME280;63171;50.520;30.486;2023-06-10T00:52:38;99777.19;;;23.27;54.49
45253;BME280;63171;50.520;30.486;2023-06-10T00:53:33;99766.97;;;23.31;54.30
45253;BME280;63171;50.520;30.486;2023-06-10T00:54:23;99762.00;;;23.28;54.38
45253;BME280;63171;50.520;30.486;2023-06-10T00:55:16;99769.63;;;23.31;54.30
45253;BME280;63171;50.520;30.486;2023-06-10T00:56:07;99772.50;;;23.29;54.07
45253;BME280;63171;50.520;30.486;2023-06-10T00:57:00;99760.78;;;23.30;54.01
45253;BME280;63171;50.520;30.486;2023-06-10T00:57:51;99766.13;;;23.30;53.90
45253;BME280;63171;50.520;30.486;2023-06-10T00:58:42;99767.16;;;23.29;54.20
45253;BME280;63171;50.520;30.486;2023-06-10T00:59:32;99766.78;;;23.33;53.93
45253;BME280;63171;50.520;30.486;2023-06-10T01:00:23;99763.47;;;23.30;53.96
45253;BME280;63171;50.520;30.486;2023-06-10T01:01:13;99768.03;;;23.22;53.91
45253;BME280;63171;50.520;30.486;2023-06-10T01:02:04;99765.91;;;23.17;53.73
45253;BME280;63171;50.520;30.486;2023-06-10T01:02:53;99763.22;;;23.17;53.89
45253;BME280;63171;50.520;30.486;2023-06-10T01:03:44;99766.75;;;23.18;53.87
45253;BME280;63171;50.520;30.486;2023-06-10T01:04:34;99769.22;;;23.19;53.42
45253;BME280;63171;50.520;30.486;2023-06-10T01:05:26;99766.91;;;23.16;53.40
45253;BME280;63171;50.520;30.486;2023-06-10T01:06:24;99767.75;;;23.17;53.36
45253;BME280;63171;50.520;30.486;2023-06-10T01:07:25;99764.94;;;23.10;53.26
45253;BME280;63171;50.520;30.486;2023-06-10T01:08:21;99760.63;;;23.09;53.36
45253;BME280;63171;50.520;30.486;2023-06-10T01:09:21;99761.63;;;23.08;53.06
45253;BME280;63171;50.520;30.486;2023-06-10T01:10:18;99763.28;;;23.09;53.19
45253;BME280;63171;50.520;30.486;2023-06-10T01:11:17;99762.00;;;23.05;53.43
45253;BME280;63171;50.520;30.486;2023-06-10T01:12:13;99759.31;;;23.05;53.45
45253;BME280;63171;50.520;30.486;2023-06-10T01:13:09;99767.97;;;23.07;53.29
45253;BME280;63171;50.520;30.486;2023-06-10T01:14:01;99759.97;;;23.07;53.23
45253;BME280;63171;50.520;30.486;2023-06-10T01:14:55;99763.84;;;23.05;53.08
45253;BME280;63171;50.520;30.486;2023-06-10T01:15:45;99766.31;;;23.06;52.92
45253;BME280;63171;50.520;30.486;2023-06-10T01:16:36;99772.69;;;23.05;53.00
45253;BME280;63171;50.520;30.486;2023-06-10T01:17:26;99772.31;;;23.08;53.01
45253;BME280;63171;50.520;30.486;2023-06-10T01:18:16;99768.34;;;23.04;53.19
45253;BME280;63171;50.520;30.486;2023-06-10T01:19:07;99772.56;;;22.98;52.84
45253;BME280;63171;50.520;30.486;2023-06-10T01:19:57;99772.91;;;22.95;52.91
45253;BME280;63171;50.520;30.486;2023-06-10T01:20:48;99771.75;;;22.98;53.10
45253;BME280;63171;50.520;30.486;2023-06-10T01:21:39;99771.38;;;23.01;52.99
45253;BME280;63171;50.520;30.486;2023-06-10T01:22:30;99771.56;;;22.99;53.40
45253;BME280;63171;50.520;30.486;2023-06-10T01:23:21;99772.38;;;23.00;52.81
45253;BME280;63171;50.520;30.486;2023-06-10T01:24:12;99775.38;;;22.97;52.81
45253;BME280;63171;50.520;30.486;2023-06-10T01:25:04;99771.06;;;22.96;53.34
45253;BME280;63171;50.520;30.486;2023-06-10T01:25:59;99774.75;;;22.95;53.08
45253;BME280;63171;50.520;30.486;2023-06-10T01:26:51;99776.94;;;22.91;52.95
45253;BME280;63171;50.520;30.486;2023-06-10T01:27:45;99771.97;;;22.88;53.01
45253;BME280;63171;50.520;30.486;2023-06-10T01:28:44;99772.78;;;22.89;53.16
45253;BME280;63171;50.520;30.486;2023-06-10T01:29:40;99776.94;;;22.91;53.12
45253;BME280;63171;50.520;30.486;2023-06-10T01:30:37;99777.13;;;22.90;53.52
45253;BME280;63171;50.520;30.486;2023-06-10T01:31:36;99776.47;;;22.88;53.42
45253;BME280;63171;50.520;30.486;2023-06-10T01:32:32;99776.47;;;22.88;53.49
45253;BME280;63171;50.520;30.486;2023-06-10T01:33:27;99780.16;;;22.87;53.18
45253;BME280;63171;50.520;30.486;2023-06-10T01:34:21;99774.81;;;22.87;53.20
45253;BME280;63171;50.520;30.486;2023-06-10T01:35:13;99776.47;;;22.80;53.25
45253;BME280;63171;50.520;30.486;2023-06-10T01:36:05;99775.47;;;22.81;53.37
45253;BME280;63171;50.520;30.486;2023-06-10T01:36:58;99773.63;;;22.81;53.70
45253;BME280;63171;50.520;30.486;2023-06-10T01:37:50;99781.50;;;22.83;53.60
45253;BME280;63171;50.520;30.486;2023-06-10T01:38:44;99770.81;;;22.83;53.75
45253;BME280;63171;50.520;30.486;2023-06-10T01:39:37;99777.50;;;22.79;53.71
45253;BME280;63171;50.520;30.486;2023-06-10T01:40:29;99780.81;;;22.81;53.70
45253;BME280;63171;50.520;30.486;2023-06-10T01:41:20;99778.97;;;22.81;53.56
45253;BME280;63171;50.520;30.486;2023-06-10T01:42:11;99772.81;;;22.81;53.66
45253;BME280;63171;50.520;30.486;2023-06-10T01:43:02;99771.13;;;22.80;53.62
45253;BME280;63171;50.520;30.486;2023-06-10T01:43:54;99774.16;;;22.77;53.87
45253;BME280;63171;50.520;30.486;2023-06-10T01:44:44;99769.84;;;22.76;53.75
45253;BME280;63171;50.520;30.486;2023-06-10T01:45:35;99770.03;;;22.74;53.56
45253;BME280;63171;50.520;30.486;2023-06-10T01:46:24;99774.03;;;22.70;53.77
45253;BME280;63171;50.520;30.486;2023-06-10T01:47:15;99775.72;;;22.71;53.65
45253;BME280;63171;50.520;30.486;2023-06-10T01:48:06;99774.03;;;22.70;53.39
45253;BME280;63171;50.520;30.486;2023-06-10T01:48:57;99783.88;;;22.69;53.51
45253;BME280;63171;50.520;30.486;2023-06-10T01:49:46;99773.56;;;22.66;53.89
45253;BME280;63171;50.520;30.486;2023-06-10T01:50:37;99776.41;;;22.65;54.01
45253;BME280;63171;50.520;30.486;2023-06-10T01:51:27;99769.69;;;22.69;54.04
45253;BME280;63171;50.520;30.486;2023-06-10T01:52:21;99780.22;;;22.70;54.13
45253;BME280;63171;50.520;30.486;2023-06-10T01:53:11;99782.38;;;22.67;53.89
45253;BME280;63171;50.520;30.486;2023-06-10T01:54:01;99772.53;;;22.67;54.26
45253;BME280;63171;50.520;30.486;2023-06-10T01:54:51;99765.03;;;22.71;54.20
45253;BME280;63171;50.520;30.486;2023-06-10T01:55:41;99764.84;;;22.73;53.78
45253;BME280;63171;50.520;30.486;2023-06-10T01:56:32;99777.38;;;22.72;54.31
45253;BME280;63171;50.520;30.486;2023-06-10T01:57:22;99777.38;;;22.72;54.05
45253;BME280;63171;50.520;30.486;2023-06-10T01:58:13;99771.03;;;22.73;53.99
45253;BME280;63171;50.520;30.486;2023-06-10T01:59:02;99772.22;;;22.70;54.07
45253;BME280;63171;50.520;30.486;2023-06-10T01:59:53;99772.38;;;22.69;54.22
45253;BME280;63171;50.520;30.486;2023-06-10T02:00:43;99775.88;;;22.69;53.86
45253;BME280;63171;50.520;30.486;2023-06-10T02:01:33;99773.38;;;22.68;54.12
45253;BME280;63171;50.520;30.486;2023-06-10T02:02:23;99775.41;;;22.66;53.95
45253;BME280;63171;50.520;30.486;2023-06-10T02:03:14;99775.22;;;22.67;54.00
45253;BME280;63171;50.520;30.486;2023-06-10T02:04:05;99767.38;;;22.66;54.36
45253;BME280;63171;50.520;30.486;2023-06-10T02:04:56;99767.38;;;22.66;54.16
45253;BME280;63171;50.520;30.486;2023-06-10T02:05:46;99776.94;;;22.60;54.21
45253;BME280;63171;50.520;30.486;2023-06-10T02:06:35;99772.44;;;22.61;54.33
45253;BME280;63171;50.520;30.486;2023-06-10T02:07:28;99772.06;;;22.64;54.36
45253;BME280;63171;50.520;30.486;2023-06-10T02:08:18;99773.25;;;22.61;54.42
45253;BME280;63171;50.520;30.486;2023-06-10T02:09:09;99775.09;;;22.61;54.14
45253;BME280;63171;50.520;30.486;2023-06-10T02:09:59;99774.28;;;22.60;54.02
45253;BME280;63171;50.520;30.486;2023-06-10T02:10:52;99777.44;;;22.56;54.45
45253;BME280;63171;50.520;30.486;2023-06-10T02:11:41;99776.78;;;22.54;54.22
45253;BME280;63171;50.520;30.486;2023-06-10T02:12:32;99774.78;;;22.56;54.47
45253;BME280;63171;50.520;30.486;2023-06-10T02:13:22;99775.47;;;22.50;54.28
45253;BME280;63171;50.520;30.486;2023-06-10T02:14:17;99773.34;;;22.45;54.65
45253;BME280;63171;50.520;30.486;2023-06-10T02:15:07;99776.03;;;22.45;54.41
45253;BME280;63171;50.520;30.486;2023-06-10T02:15:56;99779.00;;;22.42;54.32
45253;BME280;63171;50.520;30.486;2023-06-10T02:16:52;99781.50;;;22.43;54.71
45253;BME280;63171;50.520;30.486;2023-06-10T02:17:45;99779.84;;;22.42;54.54
45253;BME280;63171;50.520;30.486;2023-06-10T02:18:38;99782.03;;;22.39;54.54
45253;BME280;63171;50.520;30.486;2023-06-10T02:19:31;99780.38;;;22.38;54.53
45253;BME280;63171;50.520;30.486;2023-06-10T02:20:26;99779.53;;;22.37;54.61
45253;BME280;63171;50.520;30.486;2023-06-10T02:21:16;99783.22;;;22.36;54.62
45253;BME280;63171;50.520;30.486;2023-06-10T02:22:06;99785.22;;;22.34;54.72
45253;BME280;63171;50.520;30.486;2023-06-10T02:22:59;99786.72;;;22.37;55.08
45253;BME280;63171;50.520;30.486;2023-06-10T02:23:49;99783.22;;;22.36;54.78
45253;BME280;63171;50.520;30.486;2023-06-10T02:24:39;99786.88;;;22.35;54.88
45253;BME280;63171;50.520;30.486;2023-06-10T02:25:29;99787.91;;;22.34;54.78
45253;BME280;63171;50.520;30.486;2023-06-10T02:26:20;99780.38;;;22.38;54.81
45253;BME280;63171;50.520;30.486;2023-06-10T02:27:10;99788.19;;;22.39;55.16
45253;BME280;63171;50.520;30.486;2023-06-10T02:28:00;99783.34;;;22.43;54.85
45253;BME280;63171;50.520;30.486;2023-06-10T02:28:52;99787.00;;;22.42;54.80
45253;BME280;63171;50.520;30.486;2023-06-10T02:29:42;99787.84;;;22.42;54.71
45253;BME280;63171;50.520;30.486;2023-06-10T02:30:34;99786.34;;;22.40;54.86
45253;BME280;63171;50.520;30.486;2023-06-10T02:31:25;99791.88;;;22.38;54.71
45253;BME280;63171;50.520;30.486;2023-06-10T02:32:15;99783.03;;;22.38;55.20
45253;BME280;63171;50.520;30.486;2023-06-10T02:33:06;99793.72;;;22.38;55.11
45253;BME280;63171;50.520;30.486;2023-06-10T02:33:59;99788.19;;;22.39;55.08
45253;BME280;63171;50.520;30.486;2023-06-10T02:34:50;99788.38;;;22.38;55.06
45253;BME280;63171;50.520;30.486;2023-06-10T02:35:41;99793.72;;;22.38;54.33
45253;BME280;63171;50.520;30.486;2023-06-10T02:36:32;99787.53;;;22.37;54.93
45253;BME280;63171;50.520;30.486;2023-06-10T02:37:22;99789.84;;;22.40;54.79
45253;BME280;63171;50.520;30.486;2023-06-10T02:38:13;99786.69;;;22.45;55.11
45253;BME280;63171;50.520;30.486;2023-06-10T02:39:04;99793.50;;;22.48;54.61
45253;BME280;63171;50.520;30.486;2023-06-10T02:39:55;99790.31;;;22.52;54.74
45253;BME280;63171;50.520;30.486;2023-06-10T02:40:46;99791.78;;;22.55;54.82
45253;BME280;63171;50.520;30.486;2023-06-10T02:41:36;99795.47;;;22.54;54.65
45253;BME280;63171;50.520;30.486;2023-06-10T02:42:27;99798.31;;;22.52;54.65
45253;BME280;63171;50.520;30.486;2023-06-10T02:43:17;99799.50;;;22.50;54.59
45253;BME280;63171;50.520;30.486;2023-06-10T02:44:08;99809.81;;;22.53;54.45
45253;BME280;63171;50.520;30.486;2023-06-10T02:44:58;99801.19;;;22.42;54.39
45253;BME280;63171;50.520;30.486;2023-06-10T02:45:58;99800.53;;;22.40;54.54
45253;BME280;63171;50.520;30.486;2023-06-10T02:46:48;99808.88;;;22.37;54.54
45253;BME280;63171;50.520;30.486;2023-06-10T02:47:39;99805.56;;;22.35;54.52
45253;BME280;63171;50.520;30.486;2023-06-10T02:48:29;99805.75;;;22.34;54.33
45253;BME280;63171;50.520;30.486;2023-06-10T02:49:21;99801.72;;;22.38;54.73
45253;BME280;63171;50.520;30.486;2023-06-10T02:50:11;99804.38;;;22.38;54.50
45253;BME280;63171;50.520;30.486;2023-06-10T02:51:21;99806.69;;;22.41;54.75
45253;BME280;63171;50.520;30.486;2023-06-10T02:52:13;99801.53;;;22.39;54.60
45253;BME280;63171;50.520;30.486;2023-06-10T02:53:04;99801.38;;;22.41;54.49
45253;BME280;63171;50.520;30.486;2023-06-10T02:53:57;99806.69;;;22.41;54.61
45253;BME280;63171;50.520;30.486;2023-06-10T02:54:48;99803.19;;;22.40;54.40
45253;BME280;63171;50.520;30.486;2023-06-10T02:55:38;99804.22;;;22.39;54.36
45253;BME280;63171;50.520;30.486;2023-06-10T02:56:32;99808.06;;;22.37;54.05
45253;BME280;63171;50.520;30.486;2023-06-10T02:57:25;99810.06;;;22.35;54.26
45253;BME280;63171;50.520;30.486;2023-06-10T02:58:16;99812.25;;;22.31;54.29
45253;BME280;63171;50.520;30.486;2023-06-10T02:59:06;99814.09;;;22.31;54.06
45253;BME280;63171;50.520;30.486;2023-06-10T02:59:57;99816.41;;;22.34;54.24
45253;BME280;63171;50.520;30.486;2023-06-10T03:00:48;99814.06;;;22.39;53.93
45253;BME280;63171;50.520;30.486;2023-06-10T03:01:39;99816.19;;;22.43;53.89
45253;BME280;63171;50.520;30.486;2023-06-10T03:02:32;99818.84;;;22.52;53.70
45253;BME280;63171;50.520;30.486;2023-06-10T03:03:27;99816.97;;;22.60;53.75
45253;BME280;63171;50.520;30.486;2023-06-10T03:04:24;99812.47;;;22.61;53.99
45253;BME280;63171;50.520;30.486;2023-06-10T03:05:24;99815.63;;;22.56;53.62
45253;BME280;63171;50.520;30.486;2023-06-10T03:06:16;99818.50;;;22.55;53.78
45253;BME280;63171;50.520;30.486;2023-06-10T03:07:07;99817.81;;;22.61;53.72
45253;BME280;63171;50.520;30.486;2023-06-10T03:07:58;99813.13;;;22.63;54.06
45253;BME280;63171;50.520;30.486;2023-06-10T03:08:49;99816.09;;;22.68;54.03
45253;BME280;63171;50.520;30.486;2023-06-10T03:09:43;99823.91;;;22.69;54.00
45253;BME280;63171;50.520;30.486;2023-06-10T03:10:36;99817.25;;;22.74;54.02
45253;BME280;63171;50.520;30.486;2023-06-10T03:11:26;99818.72;;;22.76;54.21
45253;BME280;63171;50.520;30.486;2023-06-10T03:12:17;99817.38;;;22.80;54.33
45253;BME280;63171;50.520;30.486;2023-06-10T03:13:10;99826.38;;;22.87;54.12
45253;BME280;63171;50.520;30.486;2023-06-10T03:14:01;99825.38;;;22.88;54.01
45253;BME280;63171;50.520;30.486;2023-06-10T03:14:54;99827.50;;;22.93;54.26
45253;BME280;63171;50.520;30.486;2023-06-10T03:15:44;99826.50;;;22.94;54.04
45253;BME280;63171;50.520;30.486;2023-06-10T03:16:39;99828.13;;;23.03;54.05
45253;BME280;63171;50.520;30.486;2023-06-10T03:17:31;99824.56;;;23.11;54.51
45253;BME280;63171;50.520;30.486;2023-06-10T03:18:21;99819.88;;;23.13;54.35
45253;BME280;63171;50.520;30.486;2023-06-10T03:19:13;99821.00;;;23.18;53.99
45253;BME280;63171;50.520;30.486;2023-06-10T03:20:07;99822.16;;;23.24;53.98
45253;BME280;63171;50.520;30.486;2023-06-10T03:21:00;99826.78;;;23.30;54.17
45253;BME280;63171;50.520;30.486;2023-06-10T03:21:58;99823.03;;;23.39;53.81
45253;BME280;63171;50.520;30.486;2023-06-10T03:22:58;99818.97;;;23.43;53.78
45253;BME280;63171;50.520;30.486;2023-06-10T03:23:47;99823.44;;;23.51;54.04
45253;BME280;63171;50.520;30.486;2023-06-10T03:24:39;99819.22;;;23.56;53.47
45253;BME280;63171;50.520;30.486;2023-06-10T03:25:32;99823.38;;;23.59;53.34
45253;BME280;63171;50.520;30.486;2023-06-10T03:26:23;99817.34;;;23.65;53.55
45253;BME280;63171;50.520;30.486;2023-06-10T03:27:14;99825.63;;;23.70;52.86
45253;BME280;63171;50.520;30.486;2023-06-10T03:28:07;99819.91;;;23.73;52.84
45253;BME280;63171;50.520;30.486;2023-06-10T03:28:59;99821.25;;;23.77;52.47
45253;BME280;63171;50.520;30.486;2023-06-10T03:29:49;99826.03;;;23.82;52.39
45253;BME280;63171;50.520;30.486;2023-06-10T03:30:40;99823.00;;;23.85;52.26
45253;BME280;63171;50.520;30.486;2023-06-10T03:31:31;99825.19;;;23.81;52.20
45253;BME280;63171;50.520;30.486;2023-06-10T03:32:21;99824.75;;;23.78;51.61
45253;BME280;63171;50.520;30.486;2023-06-10T03:33:12;99821.25;;;23.77;51.39
45253;BME280;63171;50.520;30.486;2023-06-10T03:34:04;99822.22;;;23.76;51.31
45253;BME280;63171;50.520;30.486;2023-06-10T03:34:55;99828.06;;;23.80;51.36
45253;BME280;63171;50.520;30.486;2023-06-10T03:35:49;99826.88;;;23.82;51.49
45253;BME280;63171;50.520;30.486;2023-06-10T03:36:40;99819.66;;;23.83;51.26
45253;BME280;63171;50.520;30.486;2023-06-10T03:37:33;99820.22;;;23.78;50.67
45253;BME280;63171;50.520;30.486;2023-06-10T03:38:23;99821.31;;;23.69;50.93
45253;BME280;63171;50.520;30.486;2023-06-10T03:39:13;99829.69;;;23.66;50.67
45253;BME280;63171;50.520;30.486;2023-06-10T03:40:04;99831.34;;;23.67;50.67
45253;BME280;63171;50.520;30.486;2023-06-10T03:40:58;99829.19;;;23.63;50.17
45253;BME280;63171;50.520;30.486;2023-06-10T03:41:49;99824.78;;;23.47;49.91
45253;BME280;63171;50.520;30.486;2023-06-10T03:42:40;99828.94;;;23.49;50.13
45253;BME280;63171;50.520;30.486;2023-06-10T03:43:32;99832.56;;;23.56;50.40
45253;BME280;63171;50.520;30.486;2023-06-10T03:44:24;99833.38;;;23.65;50.35
45253;BME280;63171;50.520;30.486;2023-06-10T03:45:14;99830.72;;;23.65;50.43
45253;BME280;63171;50.520;30.486;2023-06-10T03:46:03;99831.72;;;23.64;50.18
45253;BME280;63171;50.520;30.486;2023-06-10T03:46:56;99833.84;;;23.69;50.34
45253;BME280;63171;50.520;30.486;2023-06-10T03:47:48;99829.59;;;23.74;50.11
45253;BME280;63171;50.520;30.486;2023-06-10T03:48:43;99829.97;;;23.71;50.16
45253;BME280;63171;50.520;30.486;2023-06-10T03:49:34;99831.81;;;23.71;49.83
45253;BME280;63171;50.520;30.486;2023-06-10T03:50:26;99839.00;;;23.70;49.68
45253;BME280;63171;50.520;30.486;2023-06-10T03:51:16;99834.13;;;23.74;49.69
45253;BME280;63171;50.520;30.486;2023-06-10T03:52:06;99833.00;;;23.68;49.66
45253;BME280;63171;50.520;30.486;2023-06-10T03:52:57;99831.22;;;23.61;49.42
45253;BME280;63171;50.520;30.486;2023-06-10T03:53:49;99831.59;;;23.57;49.78
45253;BME280;63171;50.520;30.486;2023-06-10T03:54:39;99828.91;;;23.57;49.36
45253;BME280;63171;50.520;30.486;2023-06-10T03:55:29;99826.25;;;23.57;49.71
45253;BME280;63171;50.520;30.486;2023-06-10T03:56:24;99821.72;;;23.58;49.76
45253;BME280;63171;50.520;30.486;2023-06-10T03:57:13;99824.09;;;23.53;49.14
45253;BME280;63171;50.520;30.486;2023-06-10T03:58:03;99825.38;;;23.57;49.68
45253;BME280;63171;50.520;30.486;2023-06-10T03:58:54;99824.03;;;23.61;49.18
45253;BME280;63171;50.520;30.486;2023-06-10T03:59:44;99825.06;;;23.60;49.48
45253;BME280;63171;50.520;30.486;2023-06-10T04:00:35;99832.69;;;23.63;49.10
45253;BME280;63171;50.520;30.486;2023-06-10T04:01:30;99830.22;;;23.62;49.25
45253;BME280;63171;50.520;30.486;2023-06-10T04:02:23;99824.16;;;23.68;49.01
45253;BME280;63171;50.520;30.486;2023-06-10T04:03:13;99825.00;;;23.68;49.44
45253;BME280;63171;50.520;30.486;2023-06-10T04:04:08;99818.91;;;23.74;48.98
45253;BME280;63171;50.520;30.486;2023-06-10T04:04:58;99826.47;;;23.71;48.96
45253;BME280;63171;50.520;30.486;2023-06-10T04:05:49;99827.28;;;23.71;49.11
45253;BME280;63171;50.520;30.486;2023-06-10T04:06:39;99824.19;;;23.82;49.26
45253;BME280;63171;50.520;30.486;2023-06-10T04:07:30;99819.41;;;23.93;49.18
45253;BME280;63171;50.520;30.486;2023-06-10T04:08:20;99821.63;;;24.04;49.21
45253;BME280;63171;50.520;30.486;2023-06-10T04:09:11;99813.06;;;24.08;48.93
45253;BME280;63171;50.520;30.486;2023-06-10T04:10:03;99820.91;;;24.10;48.65
45253;BME280;63171;50.520;30.486;2023-06-10T04:10:54;99826.19;;;24.18;49.03
45253;BME280;63171;50.520;30.486;2023-06-10T04:11:46;99820.72;;;24.26;48.49
45253;BME280;63171;50.520;30.486;2023-06-10T04:12:37;99824.22;;;24.27;48.74
45253;BME280;63171;50.520;30.486;2023-06-10T04:13:28;99817.84;;;24.28;48.81
45253;BME280;63171;50.520;30.486;2023-06-10T04:14:22;99818.03;;;24.26;48.68
45253;BME280;63171;50.520;30.486;2023-06-10T04:15:11;99827.03;;;24.33;48.13
45253;BME280;63171;50.520;30.486;2023-06-10T04:16:03;99826.47;;;24.38;48.18
45253;BME280;63171;50.520;30.486;2023-06-10T04:16:52;99827.69;;;24.35;48.33
45253;BME280;63171;50.520;30.486;2023-06-10T04:17:43;99826.41;;;24.31;48.22
45253;BME280;63171;50.520;30.486;2023-06-10T04:18:33;99827.53;;;24.29;48.22
45253;BME280;63171;50.520;30.486;2023-06-10T04:19:29;99824.44;;;24.40;48.16
45253;BME280;63171;50.520;30.486;2023-06-10T04:20:20;99818.88;;;24.56;48.30
45253;BME280;63171;50.520;30.486;2023-06-10T04:21:13;99820.63;;;24.64;47.86
45253;BME280;63171;50.520;30.486;2023-06-10T04:22:03;99815.81;;;24.74;48.27
45253;BME280;63171;50.520;30.486;2023-06-10T04:22:55;99816.06;;;24.79;47.67
45253;BME280;63171;50.520;30.486;2023-06-10T04:23:45;99817.19;;;24.85;47.83
45253;BME280;63171;50.520;30.486;2023-06-10T04:24:36;99814.66;;;24.83;47.84
45253;BME280;63171;50.520;30.486;2023-06-10T04:25:26;99817.53;;;24.82;47.37
45253;BME280;63171;50.520;30.486;2023-06-10T04:26:18;99812.16;;;24.82;47.58
45253;BME280;63171;50.520;30.486;2023-06-10T04:27:09;99815.00;;;24.95;47.45
45253;BME280;63171;50.520;30.486;2023-06-10T04:28:00;99816.72;;;25.17;47.39
45253;BME280;63171;50.520;30.486;2023-06-10T04:28:50;99819.72;;;25.29;47.44
45253;BME280;63171;50.520;30.486;2023-06-10T04:29:41;99813.91;;;25.47;47.22
45253;BME280;63171;50.520;30.486;2023-06-10T04:30:31;99818.34;;;25.61;46.93
45253;BME280;63171;50.520;30.486;2023-06-10T04:31:21;99810.78;;;25.64;46.96
45253;BME280;63171;50.520;30.486;2023-06-10T04:32:13;99814.09;;;25.67;46.47